SBOSBO JER / EGJJ
Speedbird OnlineSpeedbird Online JER / EGJJ

Jersey Airport
21:19 15.2°C

Location Jersey, Jersey
Latitude: 49.20790100097656
Longitude: -2.195509910583496
Web Airport Website | Wikipedia
Altitude 84 Meter / 277 Feet
Distance 304 KM / 189 Miles
from London.
Time Zone UTC +1 hours (Europe/Jersey)
Codes IATA: JER
ICAO: EGJJ
Runways
RunwayLength (m)Surface
081706Asphalt
261706Asphalt
Radio
TypeDescriptionFrequency
APPAPP120.3
ATISINFO112.2
ATISINFO129.725
GNDGND121.9
RDRRDR118.55
TWRTWR119.45
Live ATC
METAR EGJJ 241950Z 02008KT 340V060 9999 SCT033 15/09 Q1018
TAF TAF EGJJ 241656Z 2418/2503 02010KT 9999 FEW018TCU PROB40 TEMPO 2418/2503 7000 SHRA BKN015TCU
Weather As Of 24 Sep 2022 21:19
Description Scattered clouds
Wind 15 km/h from North (20°)
Cloud Cover 40%
Precipitation Rain: none, Snow: none
Sunrise 06:57
Sunset 19:03
Lounges Executive Lounge , Main Terminal
Rotations During the last 90 days there were
330 flights from LHR
87 flights from LGW
27 flights from LCY
12 flights from EDI
337 flights to LHR
87 flights to LGW
27 flights to LCY
12 flights to EDI


© 2017-2022 Speedbird Online